Time;durP1;ratioP1;P1;durP2;ratioP2;P2;SDS_P1;SDS_P2;PMS_P1;PMS_P2;Temp;Humidity;BMP_temperature;BMP_pressure;BME280_temperature;BME280_humidity;BME280_pressure;Samples;Min_cycle;Max_cycle;Signal;HPM_P1;HPM_P2
2021/12/17 00:00:19;;;;;;;34.17;24.35;;;;;;;9.20;96.62;102085.91;5073625;28;20032;-80
2021/12/17 00:06:07;;;;;;;34.08;24.25;;;;;;;9.20;96.27;102079.72;5092080;28;20040;-81
2021/12/17 00:08:33;;;;;;;36.08;22.63;;;;;;;9.15;96.23;102072.81;5066863;28;20482;-79
2021/12/17 00:10:58;;;;;;;37.75;24.15;;;;;;;9.14;96.25;102083.56;5075287;28;20047;-82
2021/12/17 00:13:24;;;;;;;31.50;22.17;;;;;;;9.15;96.27;102079.94;5091605;28;20038;-80
2021/12/17 00:15:49;;;;;;;30.65;22.75;;;;;;;9.16;96.09;102079.00;5092604;28;20047;-81
2021/12/17 00:18:23;;;;;;;32.15;21.67;;;;;;;9.16;95.77;102081.69;5073815;28;20032;-80
2021/12/17 00:40:20;;;;;;;31.67;22.80;;;;;;;9.17;96.14;102086.06;5092455;28;20033;-80
2021/12/17 00:43:55;;;;;;;37.47;23.20;;;;;;;9.20;95.93;102079.72;5091037;28;21061;-80
2021/12/17 00:48:36;;;;;;;33.35;23.08;;;;;;;9.22;96.29;102065.34;5092664;28;20047;-80
2021/12/17 00:53:32;;;;;;;31.80;22.33;;;;;;;9.22;96.24;102067.16;5092064;28;20904;-80
2021/12/17 00:55:58;;;;;;;34.97;23.40;;;;;;;9.21;96.50;102068.97;5093799;28;20028;-81
2021/12/17 00:58:23;;;;;;;34.22;23.33;;;;;;;9.23;96.17;102069.75;5092450;28;20051;-80
2021/12/17 01:00:49;;;;;;;39.03;24.75;;;;;;;9.24;96.18;102071.47;5071983;28;20029;-81
2021/12/17 01:03:14;;;;;;;34.85;23.20;;;;;;;9.24;95.92;102068.81;5073928;28;20082;-81
2021/12/17 01:05:40;;;;;;;36.67;23.17;;;;;;;9.22;96.05;102061.81;5091454;28;20040;-81
2021/12/17 01:08:07;;;;;;;32.13;23.63;;;;;;;9.20;96.25;102055.69;5074671;28;20028;-80
2021/12/17 01:10:36;;;;;;;34.05;22.73;;;;;;;9.20;95.99;102059.22;5090770;28;20040;-81
2021/12/17 01:13:03;;;;;;;33.75;23.35;;;;;;;9.22;96.39;102046.66;5090889;28;20095;-80
2021/12/17 01:15:28;;;;;;;33.55;23.52;;;;;;;9.23;96.45;102051.06;5072294;28;20036;-80
2021/12/17 01:18:01;;;;;;;37.13;23.70;;;;;;;9.23;96.17;102048.38;5090907;28;20119;-79
2021/12/17 01:36:21;;;;;;;33.55;23.25;;;;;;;9.23;96.17;102040.38;5091284;28;20059;-80
2021/12/17 01:44:00;;;;;;;37.92;23.50;;;;;;;9.24;96.06;102042.09;5091464;28;20065;-80
2021/12/17 01:46:30;;;;;;;34.60;25.02;;;;;;;9.22;96.13;102033.31;5089351;28;20047;-80
2021/12/17 02:00:01;;;;;;;33.70;23.83;;;;;;;9.23;95.90;102029.69;5073632;28;20042;-81
2021/12/17 02:02:29;;;;;;;40.20;25.17;;;;;;;9.23;96.12;102027.03;5090039;28;20074;-83
2021/12/17 02:04:55;;;;;;;35.00;24.17;;;;;;;9.24;95.98;102031.44;5091399;28;20039;-81
2021/12/17 02:07:20;;;;;;;40.45;25.42;;;;;;;9.24;96.21;102038.56;5090610;28;20036;-81
2021/12/17 02:28:44;;;;;;;38.85;25.05;;;;;;;9.20;95.54;102031.66;5076084;28;20050;-81
2021/12/17 02:31:33;;;;;;;37.75;25.10;;;;;;;9.20;95.83;102053.03;5092097;28;20523;-81
2021/12/17 02:34:05;;;;;;;42.85;26.08;;;;;;;9.19;95.62;102044.16;5077917;28;20443;-80
2021/12/17 02:36:34;;;;;;;38.13;25.27;;;;;;;9.21;95.63;102046.75;5077484;28;20115;-80
2021/12/17 02:39:41;;;;;;;39.55;26.70;;;;;;;9.22;96.17;102043.13;5094297;28;20025;-80
2021/12/17 02:47:14;;;;;;;37.03;25.02;;;;;;;9.19;95.77;102046.81;5092648;28;20059;-81
2021/12/17 02:49:42;;;;;;;45.15;26.33;;;;;;;9.21;95.79;102041.41;5076652;28;20032;-81
2021/12/17 02:52:08;;;;;;;42.97;26.92;;;;;;;9.21;96.12;102049.41;5075629;28;20033;-81
2021/12/17 02:54:35;;;;;;;40.95;25.60;;;;;;;9.23;95.96;102051.06;5077734;28;20070;-80
2021/12/17 02:57:02;;;;;;;41.17;26.17;;;;;;;9.23;96.19;102048.38;5076357;28;20057;-80
2021/12/17 02:59:28;;;;;;;41.92;26.33;;;;;;;9.23;95.94;102052.88;5092886;28;20028;-80
2021/12/17 03:01:54;;;;;;;41.83;27.05;;;;;;;9.24;96.08;102050.13;5092434;28;20039;-80
2021/12/17 03:04:20;;;;;;;46.47;27.23;;;;;;;9.21;96.11;102046.75;5076787;28;20032;-81
2021/12/17 03:06:46;;;;;;;44.05;26.77;;;;;;;9.20;96.18;102047.69;5075916;28;20051;-82
2021/12/17 03:09:12;;;;;;;39.90;26.83;;;;;;;9.20;95.94;102048.53;5075963;28;20043;-80
2021/12/17 03:11:37;;;;;;;43.08;26.92;;;;;;;9.22;96.62;102048.47;5076876;28;20032;-79
2021/12/17 03:14:08;;;;;;;41.40;26.42;;;;;;;9.22;96.14;102038.66;5076638;28;20039;-80
2021/12/17 03:16:39;;;;;;;43.53;26.30;;;;;;;9.21;96.10;102034.25;5059419;28;20032;-80
2021/12/17 03:23:24;;;;;;;45.47;27.20;;;;;;;9.20;96.13;102032.53;5092183;28;20101;-80
2021/12/17 03:24:34;;;;;;;47.45;27.15;;;;;;;9.20;96.65;102034.34;5094282;28;20065;-80
2021/12/17 03:26:59;;;;;;;42.78;26.63;;;;;;;9.20;96.17;102039.69;5094630;28;20028;-80
2021/12/17 03:29:24;;;;;;;45.40;27.40;;;;;;;9.22;96.82;102040.47;5094186;28;20027;-80
2021/12/17 03:31:50;;;;;;;46.88;28.38;;;;;;;9.21;96.28;102038.72;5091744;28;20035;-80
2021/12/17 03:34:18;;;;;;;47.15;29.27;;;;;;;9.18;96.45;102030.88;5092802;28;20040;-81
2021/12/17 03:36:53;;;;;;;48.38;29.60;;;;;;;9.16;96.41;102036.28;5092394;28;20051;-81
2021/12/17 03:39:19;;;;;;;48.58;28.17;;;;;;;9.15;96.31;102032.75;5076194;28;20037;-80
2021/12/17 03:41:50;;;;;;;51.72;30.27;;;;;;;9.14;96.41;102030.16;5091605;28;20028;-80
2021/12/17 03:44:16;;;;;;;55.78;30.50;;;;;;;9.13;96.57;102031.97;5092841;28;20047;-80
2021/12/17 03:46:41;;;;;;;53.42;31.25;;;;;;;9.14;96.59;102030.16;5092322;28;20037;-82
2021/12/17 03:49:06;;;;;;;52.78;30.67;;;;;;;9.11;96.94;102028.53;5093932;28;20462;-80
2021/12/17 03:51:36;;;;;;;49.90;30.60;;;;;;;9.12;96.77;102037.41;5075634;28;20036;-81
2021/12/17 03:54:01;;;;;;;53.60;32.00;;;;;;;9.12;96.80;102029.38;5093144;28;20032;-80
2021/12/17 03:56:27;;;;;;;49.92;31.33;;;;;;;9.13;96.65;102039.13;5091570;28;20039;-83
2021/12/17 03:58:54;;;;;;;51.90;31.13;;;;;;;9.11;96.73;102031.19;5093298;28;20043;-81
2021/12/17 04:01:20;;;;;;;57.60;31.95;;;;;;;9.13;97.05;102036.44;5074630;28;20051;-81
2021/12/17 04:03:45;;;;;;;58.58;33.15;;;;;;;9.14;96.80;102025.69;5091204;28;20093;-79
2021/12/17 04:06:11;;;;;;;55.13;32.30;;;;;;;9.15;96.89;102038.09;5076070;28;20039;-81
2021/12/17 04:08:37;;;;;;;54.03;30.55;;;;;;;9.14;96.82;102025.69;5091783;28;20044;-80
2021/12/17 04:11:07;;;;;;;58.58;32.83;;;;;;;9.14;96.99;102033.72;5091004;28;20044;-80
2021/12/17 04:13:36;;;;;;;55.20;31.70;;;;;;;9.12;97.03;102027.59;5092805;28;20044;-81
2021/12/17 04:16:08;;;;;;;59.50;33.90;;;;;;;9.17;97.07;102031.81;5073496;28;20040;-80
2021/12/17 04:18:38;;;;;;;58.75;33.17;;;;;;;9.17;97.08;102024.69;5075502;28;20512;-80
2021/12/17 04:21:09;;;;;;;55.28;31.73;;;;;;;9.15;96.92;102031.91;5093161;28;20040;-81
2021/12/17 04:23:34;;;;;;;60.42;32.38;;;;;;;9.10;96.94;102032.13;5092928;28;20982;-81
2021/12/17 04:26:00;;;;;;;56.83;32.45;;;;;;;9.13;97.21;102031.97;5091426;28;20032;-81
2021/12/17 04:28:26;;;;;;;54.72;33.15;;;;;;;9.15;96.84;102030.09;5092196;28;20028;-81
2021/12/17 04:30:51;;;;;;;55.05;32.47;;;;;;;9.18;96.87;102028.22;5091266;28;20032;-79
2021/12/17 04:33:17;;;;;;;55.80;32.78;;;;;;;9.18;96.85;102033.56;5092007;28;20031;-80
2021/12/17 04:35:42;;;;;;;59.92;33.08;;;;;;;9.14;96.74;102031.03;5090943;28;20043;-80
2021/12/17 04:38:10;;;;;;;54.63;31.98;;;;;;;9.11;96.77;102025.84;5091095;28;20036;-81
2021/12/17 04:40:37;;;;;;;56.53;32.30;;;;;;;9.13;96.85;102029.31;5092174;28;20040;-80
2021/12/17 04:45:40;;;;;;;56.22;31.55;;;;;;;9.08;96.96;102028.69;5090899;28;20058;-81
2021/12/17 04:59:03;;;;;;;52.10;30.83;;;;;;;9.08;97.01;102028.69;5091090;28;20108;-80
2021/12/17 05:01:29;;;;;;;55.55;31.27;;;;;;;9.07;97.00;102029.63;5090939;28;20044;-79
2021/12/17 05:03:54;;;;;;;56.47;30.48;;;;;;;9.06;97.13;102027.91;5072913;28;20122;-80
2021/12/17 05:06:19;;;;;;;56.17;30.42;;;;;;;9.06;96.86;102027.91;5092228;28;20661;-80
2021/12/17 05:08:45;;;;;;;50.47;29.63;;;;;;;9.09;97.14;102032.22;5090766;28;20044;-81
2021/12/17 05:11:26;;;;;;;53.05;30.00;;;;;;;9.13;97.06;102029.31;5091090;28;20089;-81
2021/12/17 05:19:38;;;;;;;48.03;28.08;;;;;;;9.10;96.80;102023.25;5090842;28;20051;-81
2021/12/17 05:22:08;;;;;;;48.72;29.13;;;;;;;9.12;96.55;102021.38;5075673;28;20107;-80
2021/12/17 05:24:33;;;;;;;46.80;28.08;;;;;;;9.05;96.77;102023.50;5075007;28;20049;-80
2021/12/17 05:26:59;;;;;;;46.08;27.05;;;;;;;9.04;96.43;102029.78;5073936;28;20129;-81
2021/12/17 05:29:24;;;;;;;47.40;28.45;;;;;;;9.04;96.52;102019.09;5090446;28;20029;-79
2021/12/17 05:31:49;;;;;;;44.33;26.77;;;;;;;9.07;96.70;102023.41;5072837;28;20028;-81
2021/12/17 05:34:15;;;;;;;48.97;27.80;;;;;;;9.04;96.91;102021.78;5074645;28;20044;-79
2021/12/17 05:36:40;;;;;;;46.60;27.20;;;;;;;9.02;96.51;102020.97;5091122;28;20036;-80
2021/12/17 05:39:05;;;;;;;44.80;27.45;;;;;;;9.00;96.35;102024.66;5088237;28;20042;-80
2021/12/17 05:41:31;;;;;;;47.13;26.70;;;;;;;8.99;96.58;102020.28;5073604;28;20131;-81
2021/12/17 05:43:57;;;;;;;46.17;26.95;;;;;;;8.99;96.58;102021.13;5072458;28;20552;-81
2021/12/17 05:46:37;;;;;;;45.35;26.60;;;;;;;9.03;96.70;102011.16;5089385;28;20027;-80
2021/12/17 05:49:03;;;;;;;41.10;25.42;;;;;;;9.02;96.58;102015.66;5074376;28;20032;-81
2021/12/17 05:51:28;;;;;;;45.35;26.95;;;;;;;9.01;96.44;102018.38;5072909;28;20036;-81
2021/12/17 05:53:54;;;;;;;43.75;26.98;;;;;;;9.04;96.61;102024.44;5073164;28;20040;-81
2021/12/17 05:56:20;;;;;;;44.75;27.17;;;;;;;9.04;96.47;102027.09;5088605;28;20033;-80
2021/12/17 05:58:45;;;;;;;44.03;27.00;;;;;;;9.05;96.42;102027.97;5088852;28;20051;-80
2021/12/17 06:01:11;;;;;;;45.20;26.90;;;;;;;9.05;96.04;102019.97;5073136;28;20032;-80
2021/12/17 06:03:36;;;;;;;48.08;26.15;;;;;;;9.04;96.23;102021.78;5089487;28;20056;-81
2021/12/17 06:06:02;;;;;;;43.50;26.48;;;;;;;9.03;96.40;102024.50;5087691;28;20037;-81
2021/12/17 06:08:27;;;;;;;41.78;26.10;;;;;;;9.06;96.33;102027.03;5073075;28;20088;-80
2021/12/17 06:10:52;;;;;;;41.78;25.67;;;;;;;9.05;96.16;102026.16;5089524;28;20054;-80
2021/12/17 06:13:18;;;;;;;45.25;25.95;;;;;;;9.04;96.05;102028.91;5090461;28;20476;-80
2021/12/17 06:15:43;;;;;;;49.50;26.10;;;;;;;9.03;96.07;102033.38;5089635;28;20039;-79
2021/12/17 06:18:08;;;;;;;44.35;25.63;;;;;;;9.01;95.71;102037.94;5072080;28;20040;-80
2021/12/17 06:20:34;;;;;;;47.88;27.92;;;;;;;9.01;96.04;102037.94;5089075;28;20028;-81
2021/12/17 06:22:59;;;;;;;47.15;27.58;;;;;;;9.01;95.79;102037.94;5090191;28;20028;-80
2021/12/17 06:25:24;;;;;;;46.70;27.45;;;;;;;8.99;95.89;102041.63;5090770;28;20060;-80
2021/12/17 06:27:50;;;;;;;48.55;26.48;;;;;;;8.97;96.07;102039.00;5071077;28;20032;-79
2021/12/17 06:30:16;;;;;;;46.03;26.67;;;;;;;8.96;95.96;102034.59;5090186;28;20040;-79
2021/12/17 06:32:42;;;;;;;44.55;26.25;;;;;;;8.93;96.29;102032.09;5087889;28;20032;-80
2021/12/17 06:35:08;;;;;;;45.67;26.52;;;;;;;8.93;96.07;102032.09;5089355;28;20661;-82
2021/12/17 06:37:34;;;;;;;42.35;25.63;;;;;;;8.95;96.06;102038.22;5073287;28;20046;-81
2021/12/17 06:40:00;;;;;;;39.88;23.90;;;;;;;8.97;96.31;102039.00;5088251;28;20030;-80
2021/12/17 06:42:26;;;;;;;45.03;26.48;;;;;;;8.95;96.56;102040.88;5089552;28;20119;-80
2021/12/17 06:44:55;;;;;;;41.60;25.77;;;;;;;8.98;96.03;102038.06;5090086;28;20090;-81
2021/12/17 06:47:32;;;;;;;;;;;;;;;9.00;96.11;102038.88;5088083;28;20035;-81
2021/12/17 07:06:06;;;;;;;41.97;24.60;;;;;;;8.98;95.75;102056.72;5086313;28;20499;-81
2021/12/17 07:11:36;;;;;;;40.80;23.88;;;;;;;8.98;96.25;102046.06;5090476;28;20074;-82
2021/12/17 07:17:21;;;;;;;41.88;24.08;;;;;;;9.02;96.06;102054.81;5078685;28;20070;-81
2021/12/17 07:28:13;;;;;;;46.55;24.25;;;;;;;8.97;96.07;102075.50;5060026;28;20064;-80
2021/12/17 07:33:36;;;;;;;42.05;24.40;;;;;;;8.99;95.95;102077.19;5090321;28;20058;-79
2021/12/17 07:36:09;;;;;;;43.17;24.80;;;;;;;8.94;96.02;102079.19;5091302;28;20035;-81
2021/12/17 07:41:02;;;;;;;40.30;23.90;;;;;;;8.97;96.16;102068.34;5094332;28;20041;-80
2021/12/17 07:43:37;;;;;;;39.50;23.88;;;;;;;8.95;96.21;102064.03;5074546;28;20032;-82
2021/12/17 07:46:05;;;;;;;44.10;24.35;;;;;;;8.97;96.14;102071.03;5092533;28;20948;-80
2021/12/17 07:48:31;;;;;;;42.72;24.10;;;;;;;9.00;95.91;102070.91;5074504;28;20508;-81
2021/12/17 07:50:57;;;;;;;44.03;24.30;;;;;;;9.00;96.04;102062.03;5075395;28;20108;-81
2021/12/17 07:53:23;;;;;;;37.22;23.02;;;;;;;9.01;96.01;102061.94;5088159;28;20025;-81
2021/12/17 07:55:49;;;;;;;41.40;23.83;;;;;;;9.02;95.91;102071.69;5089580;28;20043;-81
2021/12/17 07:58:14;;;;;;;39.85;23.90;;;;;;;9.01;95.56;102069.97;5070049;28;20047;-81
2021/12/17 08:00:40;;;;;;;44.55;24.67;;;;;;;8.97;95.88;102065.69;5087546;28;20507;-81
2021/12/17 08:03:05;;;;;;;43.00;24.50;;;;;;;8.93;95.92;102061.44;5067939;28;20540;-81
2021/12/17 08:05:31;;;;;;;42.58;24.13;;;;;;;8.88;96.29;102063.47;5072100;28;20048;-81
2021/12/17 08:07:57;;;;;;;40.35;23.48;;;;;;;8.88;96.27;102067.94;5088473;28;20046;-81
2021/12/17 08:10:22;;;;;;;47.38;24.83;;;;;;;8.82;96.24;102075.31;5089829;28;20054;-81
2021/12/17 08:12:47;;;;;;;46.22;26.25;;;;;;;8.84;96.14;102064.56;5072314;28;20036;-83
2021/12/17 08:15:14;;;;;;;42.30;25.15;;;;;;;8.86;96.76;102067.16;5069861;28;20039;-82
2021/12/17 08:28:23;;;;;;;43.35;23.73;;;;;;;8.88;96.60;102068.81;5089934;28;20061;-81
2021/12/17 08:30:48;;;;;;;42.67;23.25;;;;;;;8.91;96.58;102065.97;5089384;28;20677;-80
2021/12/17 08:33:19;;;;;;;43.13;24.42;;;;;;;8.96;96.73;102069.28;5087421;28;20051;-81
2021/12/17 08:35:44;;;;;;;41.90;24.80;;;;;;;8.95;96.49;102082.72;5088232;28;20057;-80
2021/12/17 08:38:10;;;;;;;44.47;24.48;;;;;;;8.97;96.52;102080.81;5090866;28;20036;-79
2021/12/17 08:40:35;;;;;;;42.15;24.10;;;;;;;9.01;96.41;102074.44;5089265;28;20027;-79
2021/12/17 08:43:01;;;;;;;40.95;23.52;;;;;;;9.03;96.20;102077.88;5090560;28;20035;-81
2021/12/17 08:45:27;;;;;;;44.00;25.02;;;;;;;9.02;96.41;102084.16;5091090;28;20044;-81
2021/12/17 08:47:52;;;;;;;45.03;24.63;;;;;;;9.03;96.32;102076.09;5071746;28;20036;-81
2021/12/17 08:50:19;;;;;;;42.70;24.05;;;;;;;9.07;96.34;102088.34;5073612;28;20032;-79
2021/12/17 08:52:45;;;;;;;41.28;22.77;;;;;;;9.07;96.40;102087.47;5089495;28;20037;-80
2021/12/17 08:55:10;;;;;;;41.58;24.23;;;;;;;9.05;96.23;102097.34;5090564;28;20032;-81
2021/12/17 08:57:36;;;;;;;40.90;22.95;;;;;;;9.00;96.08;102092.25;5089697;28;20110;-81
2021/12/17 09:00:04;;;;;;;40.42;22.27;;;;;;;9.02;96.37;102101.03;5091838;28;20443;-81
2021/12/17 09:02:29;;;;;;;43.03;23.73;;;;;;;8.97;96.16;102103.03;5073720;28;20051;-81
2021/12/17 09:04:55;;;;;;;39.72;23.40;;;;;;;8.96;96.23;102106.66;5092029;28;20110;-81
2021/12/17 09:07:20;;;;;;;44.47;23.55;;;;;;;8.93;96.68;102112.13;5090423;28;20040;-81
2021/12/17 09:09:47;;;;;;;38.40;22.63;;;;;;;8.92;96.73;102117.53;5073991;28;20103;-81
2021/12/17 09:12:13;;;;;;;38.20;22.63;;;;;;;8.97;96.77;102124.38;5090817;28;20091;-81
2021/12/17 09:14:38;;;;;;;42.70;23.05;;;;;;;9.00;96.34;102131.41;5073253;28;20051;-81
2021/12/17 09:17:04;;;;;;;40.58;24.40;;;;;;;9.00;96.54;102126.94;5090680;28;20538;-80
2021/12/17 09:19:29;;;;;;;38.67;22.52;;;;;;;9.00;96.61;102126.06;5091154;28;20032;-81
2021/12/17 09:21:55;;;;;;;40.22;22.63;;;;;;;9.00;96.29;102123.41;5089380;28;20090;-81
2021/12/17 09:24:20;;;;;;;43.08;24.27;;;;;;;9.01;96.38;102125.13;5090654;28;20032;-79
2021/12/17 09:26:45;;;;;;;42.60;22.65;;;;;;;8.97;96.31;102124.38;5073919;28;20591;-79
2021/12/17 09:29:11;;;;;;;40.85;22.42;;;;;;;9.01;96.40;102126.00;5089924;28;20101;-80
2021/12/17 09:31:36;;;;;;;40.03;22.27;;;;;;;9.00;96.44;102129.59;5071796;28;20029;-80
2021/12/17 09:34:04;;;;;;;38.53;22.55;;;;;;;9.03;96.37;102126.78;5090738;28;20654;-80
2021/12/17 09:36:29;;;;;;;37.47;21.38;;;;;;;8.99;96.46;102124.34;5090871;28;20063;-81
2021/12/17 09:38:54;;;;;;;38.85;20.90;;;;;;;9.03;96.37;102131.25;5090716;28;20040;-80
2021/12/17 09:41:21;;;;;;;41.25;22.65;;;;;;;9.01;96.16;102131.34;5091508;28;20137;-80
2021/12/17 09:43:47;;;;;;;37.97;22.60;;;;;;;8.95;96.18;102131.59;5090208;28;20111;-79
2021/12/17 09:46:13;;;;;;;38.70;22.33;;;;;;;8.95;96.34;102130.75;5089893;28;20048;-80
2021/12/17 09:48:39;;;;;;;36.85;21.70;;;;;;;8.97;96.66;102137.72;5089553;28;20032;-80
2021/12/17 09:51:06;;;;;;;36.28;22.70;;;;;;;8.97;96.48;102144.88;5073058;28;20075;-80
2021/12/17 09:53:32;;;;;;;38.25;22.98;;;;;;;9.02;96.43;102148.22;5089992;28;20036;-79
2021/12/17 09:55:58;;;;;;;41.67;22.67;;;;;;;9.05;96.68;102137.38;5090294;28;20032;-82
2021/12/17 09:58:23;;;;;;;39.05;21.83;;;;;;;9.06;96.77;102141.78;5090641;28;20024;-80
2021/12/17 10:00:49;;;;;;;39.60;22.83;;;;;;;9.03;96.64;102147.28;5088668;28;20039;-79
2021/12/17 10:03:14;;;;;;;37.75;21.60;;;;;;;9.01;96.57;102158.03;5090732;28;20048;-81
2021/12/17 10:05:40;;;;;;;37.58;20.83;;;;;;;8.98;96.60;102151.94;5089575;28;20032;-79
2021/12/17 10:08:17;;;;;;;35.92;21.33;;;;;;;9.00;96.92;102148.28;5073818;28;20028;-79
2021/12/17 10:10:55;;;;;;;37.35;21.35;;;;;;;8.97;96.52;102152.88;5089407;28;20096;-80
2021/12/17 10:13:22;;;;;;;35.33;20.75;;;;;;;9.04;96.68;102146.34;5090718;28;20428;-81
2021/12/17 10:15:51;;;;;;;38.97;22.10;;;;;;;9.03;96.79;102153.47;5091176;28;20040;-82
2021/12/17 10:18:17;;;;;;;39.53;21.40;;;;;;;8.97;96.55;102156.41;5072582;28;20043;-81
2021/12/17 10:20:58;;;;;;;38.83;22.05;;;;;;;9.06;96.55;102147.13;5086783;28;20037;-80
2021/12/17 10:23:25;;;;;;;35.33;20.35;;;;;;;9.09;96.77;102147.84;5090887;28;20081;-81
2021/12/17 10:25:51;;;;;;;37.50;21.15;;;;;;;9.06;96.47;102142.66;5072190;28;20043;-83
2021/12/17 10:28:16;;;;;;;38.28;20.75;;;;;;;9.10;96.78;102141.56;5090081;28;20036;-82
2021/12/17 10:30:47;;;;;;;38.60;21.83;;;;;;;9.07;96.58;102144.38;5090233;28;20037;-80
2021/12/17 10:33:16;;;;;;;37.88;20.77;;;;;;;9.08;96.41;102146.09;5090159;28;20036;-80
2021/12/17 10:35:45;;;;;;;38.47;21.20;;;;;;;9.07;96.90;102141.72;5089128;28;20028;-80
2021/12/17 10:38:14;;;;;;;;;;;;;;;9.14;96.74;102140.47;5073783;28;20037;-82
2021/12/17 10:40:45;;;;;;;36.35;19.92;;;;;;;9.11;97.03;102139.75;5071857;28;19977;-80
2021/12/17 10:43:24;;;;;;;35.47;21.13;;;;;;;9.09;96.99;102141.63;5090331;28;20474;-82
2021/12/17 10:48:30;;;;;;;36.72;21.08;;;;;;;9.06;96.73;102139.97;5092761;28;20426;-82
2021/12/17 10:51:08;;;;;;;36.15;20.60;;;;;;;9.06;96.93;102141.78;5076691;28;20048;-80
2021/12/17 10:53:36;;;;;;;37.85;21.52;;;;;;;9.05;97.07;102137.38;5094527;28;20040;-80
2021/12/17 10:56:02;;;;;;;33.83;20.70;;;;;;;9.06;96.90;102136.44;5092420;28;20040;-80
2021/12/17 10:58:29;;;;;;;36.38;21.42;;;;;;;9.06;96.70;102136.44;5073635;28;20028;-80
2021/12/17 11:00:57;;;;;;;40.38;21.67;;;;;;;9.09;96.99;102138.97;5060241;28;20058;-80
2021/12/17 11:03:22;;;;;;;37.97;22.00;;;;;;;9.09;96.84;102139.84;5076418;28;20052;-80
2021/12/17 11:05:48;;;;;;;34.60;19.77;;;;;;;9.07;97.29;102133.72;5076394;28;20060;-81
2021/12/17 11:08:24;;;;;;;34.35;20.23;;;;;;;9.10;96.89;102132.69;5095305;28;20035;-81
2021/12/17 11:10:57;;;;;;;28.70;17.13;;;;;;;9.05;96.98;102132.06;5077241;28;20101;-81
2021/12/17 11:13:22;;;;;;;29.23;17.70;;;;;;;9.00;96.55;102132.28;5076305;28;20044;-81
2021/12/17 11:15:49;;;;;;;32.35;17.75;;;;;;;9.04;97.11;102122.31;5094218;28;20044;-81
2021/12/17 11:18:15;;;;;;;26.55;16.10;;;;;;;9.08;96.95;102131.91;5091200;28;20035;-80
2021/12/17 11:20:40;;;;;;;26.88;16.13;;;;;;;9.07;96.99;102120.34;5075408;28;20030;-79
2021/12/17 11:23:10;;;;;;;25.50;14.43;;;;;;;9.04;96.63;102123.19;5076850;28;20100;-81
2021/12/17 11:25:37;;;;;;;23.75;15.00;;;;;;;9.07;96.97;102119.50;5092504;28;20075;-79
2021/12/17 11:28:04;;;;;;;30.50;15.50;;;;;;;9.08;96.67;102115.88;5092467;28;20691;-81
2021/12/17 11:30:31;;;;;;;27.67;16.67;;;;;;;9.08;96.82;102124.75;5075334;28;20121;-81
2021/12/17 11:33:01;;;;;;;29.05;16.92;;;;;;;9.18;96.90;102117.16;5074930;28;20036;-79
2021/12/17 11:35:28;;;;;;;23.67;15.13;;;;;;;9.24;96.45;102121.34;5092599;28;20033;-80
2021/12/17 11:37:57;;;;;;;23.35;13.20;;;;;;;9.19;96.38;102118.03;5092250;28;20044;-79
2021/12/17 11:40:29;;;;;;;21.73;14.15;;;;;;;9.22;96.15;102113.41;5059710;28;20450;-82
2021/12/17 11:43:26;;;;;;;24.52;15.38;;;;;;;9.18;96.30;102117.16;5092864;28;20056;-82
2021/12/17 11:46:00;;;;;;;23.60;15.65;;;;;;;9.19;96.02;102118.88;5092432;28;20036;-82
2021/12/17 11:48:26;;;;;;;29.30;15.85;;;;;;;9.18;96.56;102109.16;5093224;28;20543;-79
2021/12/17 11:51:05;;;;;;;27.95;16.17;;;;;;;9.15;96.21;102112.84;5093012;28;20079;-80
2021/12/17 11:53:32;;;;;;;28.00;16.05;;;;;;;9.17;96.25;102114.56;5076159;28;20070;-80
2021/12/17 11:56:02;;;;;;;26.45;16.08;;;;;;;9.14;96.31;102118.25;5091417;28;20032;-81
2021/12/17 11:58:54;;;;;;;28.98;15.50;;;;;;;9.13;96.25;102112.06;5073511;28;20043;-80
2021/12/17 12:01:59;;;;;;;25.88;16.20;;;;;;;9.19;96.25;102110.03;5089321;28;20072;-80
2021/12/17 12:04:45;;;;;;;26.60;15.40;;;;;;;9.20;96.34;102109.94;5090564;28;20041;-81
2021/12/17 12:07:25;;;;;;;24.02;14.73;;;;;;;9.12;96.41;102106.78;5092012;28;20032;-81
2021/12/17 12:10:09;;;;;;;25.33;14.02;;;;;;;9.06;96.28;102107.97;5090904;28;20028;-81
2021/12/17 12:12:34;;;;;;;25.58;15.10;;;;;;;9.10;96.42;102109.53;5092989;28;20043;-79
2021/12/17 12:15:24;;;;;;;28.00;15.10;;;;;;;9.07;96.42;102107.00;5092545;28;20048;-79
2021/12/17 12:18:06;;;;;;;25.58;15.05;;;;;;;9.10;95.87;102108.66;5093547;28;20051;-80
2021/12/17 12:20:47;;;;;;;24.17;14.55;;;;;;;9.12;96.24;102109.47;5090805;28;20036;-80
2021/12/17 12:23:31;;;;;;;24.33;14.25;;;;;;;9.10;96.42;102106.00;5092773;28;20036;-81
2021/12/17 12:26:07;;;;;;;26.50;15.05;;;;;;;9.13;96.42;102100.50;5092691;28;20032;-79
2021/12/17 12:28:45;;;;;;;28.95;16.45;;;;;;;9.09;96.34;102094.47;5094580;28;20087;-82
2021/12/17 12:31:16;;;;;;;28.65;15.50;;;;;;;9.10;96.49;102096.19;5092053;28;20093;-81
2021/12/17 12:34:00;;;;;;;32.45;16.92;;;;;;;9.07;96.35;102099.00;5091241;28;20033;-81
2021/12/17 12:36:44;;;;;;;32.17;16.85;;;;;;;9.11;96.63;102089.91;5091664;28;20039;-83
2021/12/17 12:39:20;;;;;;;30.85;17.73;;;;;;;9.11;96.55;102095.25;5090523;28;20423;-83
2021/12/17 12:41:57;;;;;;;28.73;16.88;;;;;;;9.09;96.58;102097.13;5089987;28;20880;-80
2021/12/17 12:44:44;;;;;;;29.98;17.02;;;;;;;9.13;96.57;102082.69;5090993;28;20036;-80
2021/12/17 12:47:12;;;;;;;31.40;17.23;;;;;;;9.09;96.43;102089.13;5092216;28;20039;-81
2021/12/17 12:49:52;;;;;;;30.60;17.27;;;;;;;9.09;96.72;102091.78;5092700;28;20093;-80
2021/12/17 12:52:30;;;;;;;31.67;17.35;;;;;;;9.08;96.86;102087.41;5092165;28;20039;-81
2021/12/17 12:54:58;;;;;;;28.77;17.02;;;;;;;9.14;96.85;102084.41;5090214;28;20087;-80
2021/12/17 12:57:35;;;;;;;33.97;18.27;;;;;;;9.14;96.65;102079.09;5073351;28;20044;-80
2021/12/17 13:00:06;;;;;;;31.65;17.73;;;;;;;9.14;96.47;102084.41;5091333;28;20032;-81
2021/12/17 13:02:31;;;;;;;28.15;16.52;;;;;;;9.16;96.67;102087.00;5073414;28;20055;-81
2021/12/17 13:04:59;;;;;;;28.35;16.52;;;;;;;9.17;96.71;102090.53;5091689;28;20032;-81
2021/12/17 13:08:01;;;;;;;29.08;16.38;;;;;;;9.15;96.68;102088.81;5058287;28;20036;-81
2021/12/17 13:10:36;;;;;;;26.67;14.88;;;;;;;9.15;96.67;102082.63;5074412;28;20037;-82
2021/12/17 13:13:10;;;;;;;26.98;14.00;;;;;;;9.15;96.64;102077.28;5091220;28;20032;-80
2021/12/17 13:15:42;;;;;;;25.55;14.23;;;;;;;9.17;96.71;102079.88;5092440;28;20036;-80
2021/12/17 13:23:21;;;;;;;27.02;13.80;;;;;;;9.14;96.74;102073.75;5091062;28;20040;-81
2021/12/17 13:25:59;;;;;;;25.52;14.40;;;;;;;9.12;96.60;102075.63;5090901;28;20032;-80
2021/12/17 13:28:24;;;;;;;25.05;13.38;;;;;;;9.10;97.48;102068.63;5090949;28;20037;-80
2021/12/17 13:30:55;;;;;;;25.20;13.65;;;;;;;9.11;96.74;102068.56;5089781;28;20156;-81
2021/12/17 13:33:20;;;;;;;25.25;13.25;;;;;;;9.12;96.77;102072.94;5091631;28;20044;-79
2021/12/17 13:35:46;;;;;;;25.23;13.50;;;;;;;9.10;97.02;102069.50;5091294;28;20028;-80
2021/12/17 13:38:11;;;;;;;26.65;13.65;;;;;;;9.08;97.15;102065.19;5073500;28;20036;-80
2021/12/17 13:40:37;;;;;;;26.05;14.05;;;;;;;9.05;96.96;102078.69;5089419;28;20030;-80
2021/12/17 13:43:03;;;;;;;27.88;14.27;;;;;;;9.08;97.20;102074.06;5090110;28;20039;-80
2021/12/17 13:45:30;;;;;;;27.63;14.13;;;;;;;9.11;97.21;102075.69;5090758;28;20032;-79
2021/12/17 13:47:57;;;;;;;28.55;14.88;;;;;;;9.02;96.97;102074.34;5073837;28;20060;-79
2021/12/17 13:50:22;;;;;;;30.52;15.15;;;;;;;9.01;97.13;102067.28;5089626;28;20025;-80
2021/12/17 13:52:52;;;;;;;33.05;15.95;;;;;;;9.00;97.27;102062.91;5091305;28;20058;-80
2021/12/17 13:55:26;;;;;;;27.92;14.95;;;;;;;9.06;97.14;102065.25;5090248;28;20028;-80
2021/12/17 13:57:51;;;;;;;34.70;16.85;;;;;;;9.07;97.28;102066.97;5092002;28;20028;-80
2021/12/17 14:00:23;;;;;;;31.65;15.93;;;;;;;9.03;97.15;102064.53;5089973;28;20042;-81
2021/12/17 14:02:50;;;;;;;37.58;17.85;;;;;;;8.99;97.43;102060.31;5073300;28;20091;-79
2021/12/17 14:05:20;;;;;;;39.53;17.38;;;;;;;8.90;97.05;102071.41;5074151;28;20036;-79